sensor_id;sensor_type;location;lat;lon;timestamp;temperature;humidity
66726;HTU21D;53638;51.062;5.804;2022-10-30T05:58:05;14.17;118.99
66726;HTU21D;53638;51.062;5.804;2022-10-30T06:00:34;14.12;118.99
66726;HTU21D;53638;51.062;5.804;2022-10-30T06:03:01;14.12;118.99
66726;HTU21D;53638;51.062;5.804;2022-10-30T06:05:30;14.10;118.99
66726;HTU21D;53638;51.062;5.804;2022-10-30T06:08:01;14.07;118.99
66726;HTU21D;53638;51.062;5.804;2022-10-30T06:10:28;14.04;118.99
66726;HTU21D;53638;51.062;5.804;2022-10-30T06:13:05;13.99;118.99
66726;HTU21D;53638;51.062;5.804;2022-10-30T06:15:38;13.97;118.99
66726;HTU21D;53638;51.062;5.804;2022-10-30T06:18:04;13.94;118.99
66726;HTU21D;53638;51.062;5.804;2022-10-30T06:20:38;13.90;118.99
66726;HTU21D;53638;51.062;5.804;2022-10-30T06:23:34;13.89;118.99
66726;HTU21D;53638;51.062;5.804;2022-10-30T06:26:04;13.88;118.99
66726;HTU21D;53638;51.062;5.804;2022-10-30T06:28:43;13.85;118.99
66726;HTU21D;53638;51.062;5.804;2022-10-30T06:31:11;13.83;118.99
66726;HTU21D;53638;51.062;5.804;2022-10-30T06:33:37;13.79;118.99
66726;HTU21D;53638;51.062;5.804;2022-10-30T06:36:03;13.77;118.99
66726;HTU21D;53638;51.062;5.804;2022-10-30T06:38:29;13.73;118.99
66726;HTU21D;53638;51.062;5.804;2022-10-30T06:40:55;13.70;118.99
66726;HTU21D;53638;51.062;5.804;2022-10-30T06:43:25;13.69;118.99
66726;HTU21D;53638;51.062;5.804;2022-10-30T06:46:01;13.71;118.99
66726;HTU21D;53638;51.062;5.804;2022-10-30T06:48:28;13.71;118.99
66726;HTU21D;53638;51.062;5.804;2022-10-30T06:51:03;13.68;118.99
66726;HTU21D;53638;51.062;5.804;2022-10-30T06:53:33;13.67;118.99
66726;HTU21D;53638;51.062;5.804;2022-10-30T06:56:17;13.69;118.99
66726;HTU21D;53638;51.062;5.804;2022-10-30T06:59:04;13.69;118.99
66726;HTU21D;53638;51.062;5.804;2022-10-30T07:01:33;13.70;118.99
66726;HTU21D;53638;51.062;5.804;2022-10-30T07:04:11;13.70;118.99
66726;HTU21D;53638;51.062;5.804;2022-10-30T07:06:36;13.75;118.99
66726;HTU21D;53638;51.062;5.804;2022-10-30T07:09:02;13.78;118.99
66726;HTU21D;53638;51.062;5.804;2022-10-30T07:11:28;13.83;118.99
66726;HTU21D;53638;51.062;5.804;2022-10-30T07:14:00;13.89;118.99
66726;HTU21D;53638;51.062;5.804;2022-10-30T07:16:32;13.95;118.99
66726;HTU21D;53638;51.062;5.804;2022-10-30T07:18:59;14.01;118.99
66726;HTU21D;53638;51.062;5.804;2022-10-30T07:21:26;14.08;118.99
66726;HTU21D;53638;51.062;5.804;2022-10-30T07:23:51;14.13;118.99
66726;HTU21D;53638;51.062;5.804;2022-10-30T07:26:25;14.19;118.99
66726;HTU21D;53638;51.062;5.804;2022-10-30T07:28:53;14.24;118.99
66726;HTU21D;53638;51.062;5.804;2022-10-30T07:31:22;14.27;118.99
66726;HTU21D;53638;51.062;5.804;2022-10-30T07:33:48;14.29;118.99
66726;HTU21D;53638;51.062;5.804;2022-10-30T07:36:34;14.34;118.99
66726;HTU21D;53638;51.062;5.804;2022-10-30T07:39:03;14.38;118.99
66726;HTU21D;53638;51.062;5.804;2022-10-30T07:41:34;14.41;118.99
66726;HTU21D;53638;51.062;5.804;2022-10-30T07:44:32;14.44;118.99
66726;HTU21D;53638;51.062;5.804;2022-10-30T07:47:12;14.52;118.99
66726;HTU21D;53638;51.062;5.804;2022-10-30T07:49:54;14.59;118.99
66726;HTU21D;53638;51.062;5.804;2022-10-30T07:52:20;14.68;118.99
66726;HTU21D;53638;51.062;5.804;2022-10-30T07:54:48;14.75;118.99
66726;HTU21D;53638;51.062;5.804;2022-10-30T07:57:40;14.84;118.99
66726;HTU21D;53638;51.062;5.804;2022-10-30T08:00:16;14.91;118.99
66726;HTU21D;53638;51.062;5.804;2022-10-30T08:02:55;15.00;118.99
66726;HTU21D;53638;51.062;5.804;2022-10-30T08:05:28;15.10;118.99
66726;HTU21D;53638;51.062;5.804;2022-10-30T08:08:06;15.15;118.99
66726;HTU21D;53638;51.062;5.804;2022-10-30T08:10:32;15.23;118.99
66726;HTU21D;53638;51.062;5.804;2022-10-30T08:12:58;15.30;118.99
66726;HTU21D;53638;51.062;5.804;2022-10-30T08:15:24;15.38;118.99
66726;HTU21D;53638;51.062;5.804;2022-10-30T08:17:50;15.44;118.99
66726;HTU21D;53638;51.062;5.804;2022-10-30T08:20:19;15.49;118.99
66726;HTU21D;53638;51.062;5.804;2022-10-30T08:22:53;15.57;118.99
66726;HTU21D;53638;51.062;5.804;2022-10-30T08:25:26;15.69;118.99
66726;HTU21D;53638;51.062;5.804;2022-10-30T08:27:57;15.81;118.99
66726;HTU21D;53638;51.062;5.804;2022-10-30T08:30:28;15.89;118.99
66726;HTU21D;53638;51.062;5.804;2022-10-30T08:32:57;16.00;118.99
66726;HTU21D;53638;51.062;5.804;2022-10-30T08:35:48;16.10;118.99
66726;HTU21D;53638;51.062;5.804;2022-10-30T08:38:15;16.19;118.99
66726;HTU21D;53638;51.062;5.804;2022-10-30T08:40:43;16.30;118.99
66726;HTU21D;53638;51.062;5.804;2022-10-30T08:43:09;16.39;118.99
66726;HTU21D;53638;51.062;5.804;2022-10-30T08:45:36;16.47;118.99
66726;HTU21D;53638;51.062;5.804;2022-10-30T08:48:10;16.56;118.99
66726;HTU21D;53638;51.062;5.804;2022-10-30T08:50:40;16.64;118.99
66726;HTU21D;53638;51.062;5.804;2022-10-30T08:53:09;16.71;118.99
66726;HTU21D;53638;51.062;5.804;2022-10-30T08:55:35;16.77;118.99
66726;HTU21D;53638;51.062;5.804;2022-10-30T08:58:04;16.85;118.99
66726;HTU21D;53638;51.062;5.804;2022-10-30T09:00:30;16.91;118.99
66726;HTU21D;53638;51.062;5.804;2022-10-30T09:03:06;17.02;118.99
66726;HTU21D;53638;51.062;5.804;2022-10-30T09:06:02;17.08;118.99
66726;HTU21D;53638;51.062;5.804;2022-10-30T09:08:48;17.15;118.99
66726;HTU21D;53638;51.062;5.804;2022-10-30T09:11:31;17.16;118.99
66726;HTU21D;53638;51.062;5.804;2022-10-30T09:13:57;17.19;118.99
66726;HTU21D;53638;51.062;5.804;2022-10-30T09:16:24;17.22;118.99
66726;HTU21D;53638;51.062;5.804;2022-10-30T09:18:49;17.26;118.99
66726;HTU21D;53638;51.062;5.804;2022-10-30T09:21:18;17.33;118.99
66726;HTU21D;53638;51.062;5.804;2022-10-30T09:23:49;17.40;118.99
66726;HTU21D;53638;51.062;5.804;2022-10-30T09:26:32;17.50;118.99
66726;HTU21D;53638;51.062;5.804;2022-10-30T09:29:06;17.59;118.99
66726;HTU21D;53638;51.062;5.804;2022-10-30T09:31:50;17.68;118.99
66726;HTU21D;53638;51.062;5.804;2022-10-30T09:34:18;17.77;118.99
66726;HTU21D;53638;51.062;5.804;2022-10-30T09:36:51;17.85;118.99
66726;HTU21D;53638;51.062;5.804;2022-10-30T09:39:17;17.94;118.99
66726;HTU21D;53638;51.062;5.804;2022-10-30T09:44:43;18.09;118.99
66726;HTU21D;53638;51.062;5.804;2022-10-30T09:47:24;18.23;118.99
66726;HTU21D;53638;51.062;5.804;2022-10-30T09:50:06;18.36;118.99
66726;HTU21D;53638;51.062;5.804;2022-10-30T09:58:13;18.85;118.99
66726;HTU21D;53638;51.062;5.804;2022-10-30T10:00:51;19.03;118.99
66726;HTU21D;53638;51.062;5.804;2022-10-30T10:03:48;19.28;118.99
66726;HTU21D;53638;51.062;5.804;2022-10-30T10:06:42;19.83;118.99
66726;HTU21D;53638;51.062;5.804;2022-10-30T10:09:29;20.24;118.99
66726;HTU21D;53638;51.062;5.804;2022-10-30T10:12:04;20.53;118.99
66726;HTU21D;53638;51.062;5.804;2022-10-30T10:14:36;21.02;118.99
66726;HTU21D;53638;51.062;5.804;2022-10-30T10:17:12;22.19;118.99
66726;HTU21D;53638;51.062;5.804;2022-10-30T10:19:54;23.71;118.99
66726;HTU21D;53638;51.062;5.804;2022-10-30T10:22:51;24.93;118.99
66726;HTU21D;53638;51.062;5.804;2022-10-30T10:25:19;25.17;118.99
66726;HTU21D;53638;51.062;5.804;2022-10-30T10:28:04;25.34;118.99
66726;HTU21D;53638;51.062;5.804;2022-10-30T10:39:03;27.47;106.40
66726;HTU21D;53638;51.062;5.804;2022-10-30T10:44:33;27.60;101.37
66726;HTU21D;53638;51.062;5.804;2022-10-30T10:52:56;29.08;97.68
66726;HTU21D;53638;51.062;5.804;2022-10-30T10:55:32;29.33;95.30
66726;HTU21D;53638;51.062;5.804;2022-10-30T11:00:46;29.33;95.11
66726;HTU21D;53638;51.062;5.804;2022-10-30T11:03:12;29.50;97.10
66726;HTU21D;53638;51.062;5.804;2022-10-30T11:05:51;29.86;93.00
66726;HTU21D;53638;51.062;5.804;2022-10-30T11:08:24;29.67;91.40
66726;HTU21D;53638;51.062;5.804;2022-10-30T11:10:58;29.48;89.21
66726;HTU21D;53638;51.062;5.804;2022-10-30T11:13:28;29.22;88.86
66726;HTU21D;53638;51.062;5.804;2022-10-30T11:18:20;29.11;87.58
66726;HTU21D;53638;51.062;5.804;2022-10-30T11:20:56;28.98;87.21
66726;HTU21D;53638;51.062;5.804;2022-10-30T11:26:01;29.47;86.50
66726;HTU21D;53638;51.062;5.804;2022-10-30T11:28:44;29.70;85.09
66726;HTU21D;53638;51.062;5.804;2022-10-30T11:33:47;29.85;84.93
66726;HTU21D;53638;51.062;5.804;2022-10-30T11:36:17;30.06;83.32
66726;HTU21D;53638;51.062;5.804;2022-10-30T11:38:43;29.38;84.61
66726;HTU21D;53638;51.062;5.804;2022-10-30T11:41:10;29.02;84.99
66726;HTU21D;53638;51.062;5.804;2022-10-30T11:43:39;29.24;85.32
66726;HTU21D;53638;51.062;5.804;2022-10-30T11:46:10;29.11;84.89
66726;HTU21D;53638;51.062;5.804;2022-10-30T11:48:43;28.72;85.19
66726;HTU21D;53638;51.062;5.804;2022-10-30T11:51:11;28.57;85.99
66726;HTU21D;53638;51.062;5.804;2022-10-30T11:53:46;28.60;86.14
66726;HTU21D;53638;51.062;5.804;2022-10-30T11:56:18;28.69;86.56
66726;HTU21D;53638;51.062;5.804;2022-10-30T11:58:56;28.82;84.87
66726;HTU21D;53638;51.062;5.804;2022-10-30T12:01:25;29.06;85.03
66726;HTU21D;53638;51.062;5.804;2022-10-30T12:03:53;28.91;84.10
66726;HTU21D;53638;51.062;5.804;2022-10-30T12:06:28;28.82;85.08
66726;HTU21D;53638;51.062;5.804;2022-10-30T12:11:43;29.52;83.16
66726;HTU21D;53638;51.062;5.804;2022-10-30T12:14:21;29.37;82.21
66726;HTU21D;53638;51.062;5.804;2022-10-30T12:16:50;28.92;82.87
66726;HTU21D;53638;51.062;5.804;2022-10-30T12:19:20;28.70;82.42
66726;HTU21D;53638;51.062;5.804;2022-10-30T12:21:49;28.55;84.15
66726;HTU21D;53638;51.062;5.804;2022-10-30T12:24:23;28.50;84.23
66726;HTU21D;53638;51.062;5.804;2022-10-30T12:26:54;28.00;83.62
66726;HTU21D;53638;51.062;5.804;2022-10-30T12:29:34;27.53;85.24
66726;HTU21D;53638;51.062;5.804;2022-10-30T12:32:07;27.32;85.80
66726;HTU21D;53638;51.062;5.804;2022-10-30T12:34:38;27.06;85.64
66726;HTU21D;53638;51.062;5.804;2022-10-30T12:39:54;27.01;87.77
66726;HTU21D;53638;51.062;5.804;2022-10-30T12:42:21;27.41;87.25
66726;HTU21D;53638;51.062;5.804;2022-10-30T12:45:01;28.10;88.33
66726;HTU21D;53638;51.062;5.804;2022-10-30T12:47:44;28.50;84.79
66726;HTU21D;53638;51.062;5.804;2022-10-30T12:50:19;28.13;84.56
66726;HTU21D;53638;51.062;5.804;2022-10-30T12:53:05;27.82;85.92
66726;HTU21D;53638;51.062;5.804;2022-10-30T12:55:40;27.52;85.92
66726;HTU21D;53638;51.062;5.804;2022-10-30T12:58:09;27.31;87.04
66726;HTU21D;53638;51.062;5.804;2022-10-30T13:00:50;27.17;86.98
66726;HTU21D;53638;51.062;5.804;2022-10-30T13:03:33;26.98;88.36
66726;HTU21D;53638;51.062;5.804;2022-10-30T13:06:09;27.02;88.12
66726;HTU21D;53638;51.062;5.804;2022-10-30T13:11:10;27.29;87.82
66726;HTU21D;53638;51.062;5.804;2022-10-30T13:13:45;27.43;87.59
66726;HTU21D;53638;51.062;5.804;2022-10-30T13:16:27;27.37;87.91
66726;HTU21D;53638;51.062;5.804;2022-10-30T13:18:58;27.26;87.25
66726;HTU21D;53638;51.062;5.804;2022-10-30T13:21:27;27.20;88.52
66726;HTU21D;53638;51.062;5.804;2022-10-30T13:24:13;27.23;87.97
66726;HTU21D;53638;51.062;5.804;2022-10-30T13:26:54;27.16;87.41
66726;HTU21D;53638;51.062;5.804;2022-10-30T13:29:30;27.07;87.37
66726;HTU21D;53638;51.062;5.804;2022-10-30T13:32:13;27.06;87.25
66726;HTU21D;53638;51.062;5.804;2022-10-30T13:34:54;26.68;87.06
66726;HTU21D;53638;51.062;5.804;2022-10-30T13:37:34;26.49;86.09
66726;HTU21D;53638;51.062;5.804;2022-10-30T13:43:16;26.11;88.31
66726;HTU21D;53638;51.062;5.804;2022-10-30T13:46:00;26.18;88.31
66726;HTU21D;53638;51.062;5.804;2022-10-30T13:54:18;26.24;88.10
66726;HTU21D;53638;51.062;5.804;2022-10-30T13:56:48;26.22;87.25
66726;HTU21D;53638;51.062;5.804;2022-10-30T14:02:06;25.78;88.54
66726;HTU21D;53638;51.062;5.804;2022-10-30T14:04:50;25.49;89.09
66726;HTU21D;53638;51.062;5.804;2022-10-30T14:10:05;25.31;89.83
66726;HTU21D;53638;51.062;5.804;2022-10-30T14:20:38;25.34;90.31
66726;HTU21D;53638;51.062;5.804;2022-10-30T14:23:15;25.33;90.89
66726;HTU21D;53638;51.062;5.804;2022-10-30T14:28:32;25.28;91.95
66726;HTU21D;53638;51.062;5.804;2022-10-30T14:31:12;25.28;91.03
66726;HTU21D;53638;51.062;5.804;2022-10-30T14:33:49;25.28;91.54
66726;HTU21D;53638;51.062;5.804;2022-10-30T14:46:33;25.24;90.32
66726;HTU21D;53638;51.062;5.804;2022-10-30T14:49:24;25.19;90.69
66726;HTU21D;53638;51.062;5.804;2022-10-30T14:52:09;25.16;90.19
66726;HTU21D;53638;51.062;5.804;2022-10-30T14:54:49;25.05;90.44
66726;HTU21D;53638;51.062;5.804;2022-10-30T14:57:41;24.90;90.94
66726;HTU21D;53638;51.062;5.804;2022-10-30T15:05:48;24.59;91.97
66726;HTU21D;53638;51.062;5.804;2022-10-30T15:08:44;24.45;91.61
66726;HTU21D;53638;51.062;5.804;2022-10-30T15:14:04;24.14;91.93
66726;HTU21D;53638;51.062;5.804;2022-10-30T15:16:37;23.95;92.57
66726;HTU21D;53638;51.062;5.804;2022-10-30T15:19:07;23.77;93.31
66726;HTU21D;53638;51.062;5.804;2022-10-30T15:21:42;23.61;94.09
66726;HTU21D;53638;51.062;5.804;2022-10-30T15:24:15;23.41;95.36
66726;HTU21D;53638;51.062;5.804;2022-10-30T15:26:47;23.23;95.33
66726;HTU21D;53638;51.062;5.804;2022-10-30T15:29:20;23.06;95.70
66726;HTU21D;53638;51.062;5.804;2022-10-30T15:32:12;22.93;96.29
66726;HTU21D;53638;51.062;5.804;2022-10-30T15:34:39;22.80;96.62
66726;HTU21D;53638;51.062;5.804;2022-10-30T15:37:11;22.69;96.83
66726;HTU21D;53638;51.062;5.804;2022-10-30T15:39:37;22.66;97.26
66726;HTU21D;53638;51.062;5.804;2022-10-30T15:42:04;22.66;97.64
66726;HTU21D;53638;51.062;5.804;2022-10-30T15:44:33;22.63;97.73
66726;HTU21D;53638;51.062;5.804;2022-10-30T15:47:02;22.57;97.78
66726;HTU21D;53638;51.062;5.804;2022-10-30T15:49:33;22.52;97.39
66726;HTU21D;53638;51.062;5.804;2022-10-30T15:52:04;22.40;97.18
66726;HTU21D;53638;51.062;5.804;2022-10-30T15:54:40;22.31;97.61
66726;HTU21D;53638;51.062;5.804;2022-10-30T15:57:17;22.21;98.22
66726;HTU21D;53638;51.062;5.804;2022-10-30T15:59:54;22.10;99.61
66726;HTU21D;53638;51.062;5.804;2022-10-30T16:02:23;21.98;100.37
66726;HTU21D;53638;51.062;5.804;2022-10-30T16:04:49;21.81;100.85
66726;HTU21D;53638;51.062;5.804;2022-10-30T16:07:19;21.63;101.54
66726;HTU21D;53638;51.062;5.804;2022-10-30T16:09:59;21.44;102.65
66726;HTU21D;53638;51.062;5.804;2022-10-30T16:12:29;21.17;104.46
66726;HTU21D;53638;51.062;5.804;2022-10-30T16:14:59;20.95;105.97
66726;HTU21D;53638;51.062;5.804;2022-10-30T16:17:27;20.65;107.80
66726;HTU21D;53638;51.062;5.804;2022-10-30T16:19:58;20.43;109.58
66726;HTU21D;53638;51.062;5.804;2022-10-30T16:22:32;20.27;111.04
66726;HTU21D;53638;51.062;5.804;2022-10-30T16:24:59;20.14;112.59
66726;HTU21D;53638;51.062;5.804;2022-10-30T16:27:25;20.02;113.80
66726;HTU21D;53638;51.062;5.804;2022-10-30T16:29:55;19.84;115.01
66726;HTU21D;53638;51.062;5.804;2022-10-30T16:32:26;19.74;116.19
66726;HTU21D;53638;51.062;5.804;2022-10-30T16:34:56;19.68;116.87
66726;HTU21D;53638;51.062;5.804;2022-10-30T16:37:26;19.66;117.28
66726;HTU21D;53638;51.062;5.804;2022-10-30T16:39:55;19.66;117.86
66726;HTU21D;53638;51.062;5.804;2022-10-30T16:42:23;19.67;118.37
66726;HTU21D;53638;51.062;5.804;2022-10-30T16:44:50;19.63;118.99
66726;HTU21D;53638;51.062;5.804;2022-10-30T16:49:48;19.58;118.99
66726;HTU21D;53638;51.062;5.804;2022-10-30T16:52:15;19.59;118.99
66726;HTU21D;53638;51.062;5.804;2022-10-30T16:54:51;19.58;118.99
66726;HTU21D;53638;51.062;5.804;2022-10-30T16:57:26;19.58;118.99
66726;HTU21D;53638;51.062;5.804;2022-10-30T16:59:55;19.61;118.99
66726;HTU21D;53638;51.062;5.804;2022-10-30T17:02:26;19.67;118.99
66726;HTU21D;53638;51.062;5.804;2022-10-30T17:07:26;19.72;118.99
66726;HTU21D;53638;51.062;5.804;2022-10-30T17:09:54;19.73;118.99
66726;HTU21D;53638;51.062;5.804;2022-10-30T17:12:25;19.75;118.99
66726;HTU21D;53638;51.062;5.804;2022-10-30T17:14:54;19.77;118.99
66726;HTU21D;53638;51.062;5.804;2022-10-30T17:19:57;19.76;118.99
66726;HTU21D;53638;51.062;5.804;2022-10-30T17:22:25;19.75;118.99
66726;HTU21D;53638;51.062;5.804;2022-10-30T17:24:52;19.76;118.99
66726;HTU21D;53638;51.062;5.804;2022-10-30T17:27:36;19.77;118.99
66726;HTU21D;53638;51.062;5.804;2022-10-30T17:35:46;19.66;118.99
66726;HTU21D;53638;51.062;5.804;2022-10-30T17:38:12;19.66;118.99
66726;HTU21D;53638;51.062;5.804;2022-10-30T17:40:38;19.65;118.99
66726;HTU21D;53638;51.062;5.804;2022-10-30T17:43:04;19.61;118.99
66726;HTU21D;53638;51.062;5.804;2022-10-30T17:45:30;19.57;118.99
66726;HTU21D;53638;51.062;5.804;2022-10-30T17:47:56;19.55;118.99
66726;HTU21D;53638;51.062;5.804;2022-10-30T17:50:22;19.45;118.99
66726;HTU21D;53638;51.062;5.804;2022-10-30T17:52:48;19.36;118.99
66726;HTU21D;53638;51.062;5.804;2022-10-30T17:55:23;19.31;118.99
66726;HTU21D;53638;51.062;5.804;2022-10-30T17:57:50;19.27;118.99
66726;HTU21D;53638;51.062;5.804;2022-10-30T18:00:16;19.21;118.99
66726;HTU21D;53638;51.062;5.804;2022-10-30T18:02:42;19.11;118.99
66726;HTU21D;53638;51.062;5.804;2022-10-30T18:05:15;19.02;118.99
66726;HTU21D;53638;51.062;5.804;2022-10-30T18:07:42;18.94;118.99
66726;HTU21D;53638;51.062;5.804;2022-10-30T18:10:08;18.87;118.99
66726;HTU21D;53638;51.062;5.804;2022-10-30T18:12:34;18.80;118.99
66726;HTU21D;53638;51.062;5.804;2022-10-30T18:15:25;18.71;118.99
66726;HTU21D;53638;51.062;5.804;2022-10-30T18:17:51;18.63;118.99
66726;HTU21D;53638;51.062;5.804;2022-10-30T18:20:18;18.51;118.99
66726;HTU21D;53638;51.062;5.804;2022-10-30T18:22:44;18.44;118.99
66726;HTU21D;53638;51.062;5.804;2022-10-30T18:25:17;18.40;118.99
66726;HTU21D;53638;51.062;5.804;2022-10-30T18:27:43;18.36;118.99
66726;HTU21D;53638;51.062;5.804;2022-10-30T18:30:12;18.35;118.99
66726;HTU21D;53638;51.062;5.804;2022-10-30T18:32:38;18.36;118.99
66726;HTU21D;53638;51.062;5.804;2022-10-30T18:35:13;18.35;118.99
66726;HTU21D;53638;51.062;5.804;2022-10-30T18:37:39;18.30;118.99
66726;HTU21D;53638;51.062;5.804;2022-10-30T18:40:06;18.29;118.99
66726;HTU21D;53638;51.062;5.804;2022-10-30T18:42:32;18.32;118.99
66726;HTU21D;53638;51.062;5.804;2022-10-30T18:44:58;18.29;118.99
66726;HTU21D;53638;51.062;5.804;2022-10-30T18:47:23;18.30;118.99
66726;HTU21D;53638;51.062;5.804;2022-10-30T18:49:49;18.27;118.99
66726;HTU21D;53638;51.062;5.804;2022-10-30T18:52:15;18.26;118.99
66726;HTU21D;53638;51.062;5.804;2022-10-30T18:54:41;18.22;118.99
66726;HTU21D;53638;51.062;5.804;2022-10-30T18:57:07;18.15;118.99
66726;HTU21D;53638;51.062;5.804;2022-10-30T18:59:33;18.12;118.99
66726;HTU21D;53638;51.062;5.804;2022-10-30T19:01:59;18.08;118.99
66726;HTU21D;53638;51.062;5.804;2022-10-30T19:04:25;18.07;118.99
66726;HTU21D;53638;51.062;5.804;2022-10-30T19:06:51;18.06;118.99
66726;HTU21D;53638;51.062;5.804;2022-10-30T19:09:17;18.04;118.99
66726;HTU21D;53638;51.062;5.804;2022-10-30T19:11:43;18.00;118.99
66726;HTU21D;53638;51.062;5.804;2022-10-30T19:14:11;17.98;118.99
66726;HTU21D;53638;51.062;5.804;2022-10-30T19:16:38;17.97;118.99
66726;HTU21D;53638;51.062;5.804;2022-10-30T19:19:04;17.93;118.99
66726;HTU21D;53638;51.062;5.804;2022-10-30T19:21:30;17.91;118.99
66726;HTU21D;53638;51.062;5.804;2022-10-30T19:24:01;17.87;118.99
66726;HTU21D;53638;51.062;5.804;2022-10-30T19:26:27;17.82;118.99
66726;HTU21D;53638;51.062;5.804;2022-10-30T19:28:53;17.78;118.99
66726;HTU21D;53638;51.062;5.804;2022-10-30T19:31:19;17.76;118.99
66726;HTU21D;53638;51.062;5.804;2022-10-30T19:33:46;17.77;118.99
66726;HTU21D;53638;51.062;5.804;2022-10-30T19:36:26;17.75;118.99
66726;HTU21D;53638;51.062;5.804;2022-10-30T19:38:53;17.73;118.99
66726;HTU21D;53638;51.062;5.804;2022-10-30T19:41:18;17.67;118.99
66726;HTU21D;53638;51.062;5.804;2022-10-30T19:43:44;17.66;118.99
66726;HTU21D;53638;51.062;5.804;2022-10-30T19:46:12;17.64;118.99
66726;HTU21D;53638;51.062;5.804;2022-10-30T19:48:39;17.62;118.99
66726;HTU21D;53638;51.062;5.804;2022-10-30T19:51:05;17.61;118.99
66726;HTU21D;53638;51.062;5.804;2022-10-30T19:53:34;17.56;118.99
66726;HTU21D;53638;51.062;5.804;2022-10-30T19:56:00;17.55;118.99
66726;HTU21D;53638;51.062;5.804;2022-10-30T19:58:26;17.55;118.99
66726;HTU21D;53638;51.062;5.804;2022-10-30T20:00:53;17.52;118.99
66726;HTU21D;53638;51.062;5.804;2022-10-30T20:03:20;17.48;118.99
66726;HTU21D;53638;51.062;5.804;2022-10-30T20:05:47;17.43;118.99
66726;HTU21D;53638;51.062;5.804;2022-10-30T20:08:20;17.40;118.99
66726;HTU21D;53638;51.062;5.804;2022-10-30T20:10:50;17.37;118.99
66726;HTU21D;53638;51.062;5.804;2022-10-30T20:13:17;17.35;118.99
66726;HTU21D;53638;51.062;5.804;2022-10-30T20:15:43;17.32;118.99
66726;HTU21D;53638;51.062;5.804;2022-10-30T20:18:14;17.25;118.99
66726;HTU21D;53638;51.062;5.804;2022-10-30T20:20:50;17.21;118.99
66726;HTU21D;53638;51.062;5.804;2022-10-30T20:23:16;17.10;118.99
66726;HTU21D;53638;51.062;5.804;2022-10-30T20:25:43;17.04;118.99
66726;HTU21D;53638;51.062;5.804;2022-10-30T20:28:20;17.02;118.99
66726;HTU21D;53638;51.062;5.804;2022-10-30T20:30:47;17.02;118.99
66726;HTU21D;53638;51.062;5.804;2022-10-30T20:33:17;16.99;118.99
66726;HTU21D;53638;51.062;5.804;2022-10-30T20:35:45;16.96;118.99
66726;HTU21D;53638;51.062;5.804;2022-10-30T20:38:18;16.94;118.99
66726;HTU21D;53638;51.062;5.804;2022-10-30T20:40:46;16.92;118.99
66726;HTU21D;53638;51.062;5.804;2022-10-30T20:43:17;16.92;118.99
66726;HTU21D;53638;51.062;5.804;2022-10-30T20:45:44;16.95;118.99
66726;HTU21D;53638;51.062;5.804;2022-10-30T20:48:11;16.98;118.99
66726;HTU21D;53638;51.062;5.804;2022-10-30T20:50:37;16.93;118.99
66726;HTU21D;53638;51.062;5.804;2022-10-30T20:53:03;16.94;118.99
66726;HTU21D;53638;51.062;5.804;2022-10-30T20:55:29;16.98;118.99
66726;HTU21D;53638;51.062;5.804;2022-10-30T20:57:55;16.98;118.99
66726;HTU21D;53638;51.062;5.804;2022-10-30T21:00:21;17.00;118.99
66726;HTU21D;53638;51.062;5.804;2022-10-30T21:02:47;17.01;118.99
66726;HTU21D;53638;51.062;5.804;2022-10-30T21:05:13;16.98;118.99
66726;HTU21D;53638;51.062;5.804;2022-10-30T21:07:39;16.93;118.99
66726;HTU21D;53638;51.062;5.804;2022-10-30T21:10:05;16.91;118.99
66726;HTU21D;53638;51.062;5.804;2022-10-30T21:12:31;16.88;118.99
66726;HTU21D;53638;51.062;5.804;2022-10-30T21:14:57;16.87;118.99
66726;HTU21D;53638;51.062;5.804;2022-10-30T21:17:23;16.88;118.99
66726;HTU21D;53638;51.062;5.804;2022-10-30T21:19:49;16.85;118.99
66726;HTU21D;53638;51.062;5.804;2022-10-30T21:22:15;16.85;118.99
66726;HTU21D;53638;51.062;5.804;2022-10-30T21:24:41;16.81;118.99
66726;HTU21D;53638;51.062;5.804;2022-10-30T21:27:07;16.84;118.99
66726;HTU21D;53638;51.062;5.804;2022-10-30T21:29:33;16.85;118.99
66726;HTU21D;53638;51.062;5.804;2022-10-30T21:31:58;16.86;118.99
66726;HTU21D;53638;51.062;5.804;2022-10-30T21:34:24;16.87;118.99
66726;HTU21D;53638;51.062;5.804;2022-10-30T21:36:50;16.88;118.99
66726;HTU21D;53638;51.062;5.804;2022-10-30T21:39:16;16.87;118.99
66726;HTU21D;53638;51.062;5.804;2022-10-30T21:41:42;16.78;118.99
66726;HTU21D;53638;51.062;5.804;2022-10-30T21:44:08;16.75;118.99
66726;HTU21D;53638;51.062;5.804;2022-10-30T21:46:34;16.75;118.99
66726;HTU21D;53638;51.062;5.804;2022-10-30T21:49:03;16.73;118.99
66726;HTU21D;53638;51.062;5.804;2022-10-30T21:51:29;16.76;118.99
66726;HTU21D;53638;51.062;5.804;2022-10-30T21:53:55;16.66;118.99
66726;HTU21D;53638;51.062;5.804;2022-10-30T21:56:24;16.63;118.99
66726;HTU21D;53638;51.062;5.804;2022-10-30T21:58:53;16.60;118.99
66726;HTU21D;53638;51.062;5.804;2022-10-30T22:01:22;16.61;118.99
66726;HTU21D;53638;51.062;5.804;2022-10-30T22:03:48;16.60;118.99
66726;HTU21D;53638;51.062;5.804;2022-10-30T22:06:16;16.60;118.99
66726;HTU21D;53638;51.062;5.804;2022-10-30T22:08:44;16.62;118.99
66726;HTU21D;53638;51.062;5.804;2022-10-30T22:11:11;16.65;118.99
66726;HTU21D;53638;51.062;5.804;2022-10-30T22:13:37;16.65;118.99
66726;HTU21D;53638;51.062;5.804;2022-10-30T22:16:06;16.66;118.99
66726;HTU21D;53638;51.062;5.804;2022-10-30T22:18:32;16.69;118.99
66726;HTU21D;53638;51.062;5.804;2022-10-30T22:21:00;16.70;118.99
66726;HTU21D;53638;51.062;5.804;2022-10-30T22:23:27;16.72;118.99
66726;HTU21D;53638;51.062;5.804;2022-10-30T22:25:55;16.70;118.99
66726;HTU21D;53638;51.062;5.804;2022-10-30T22:28:21;16.65;118.99
66726;HTU21D;53638;51.062;5.804;2022-10-30T22:30:47;16.62;118.99
66726;HTU21D;53638;51.062;5.804;2022-10-30T22:33:13;16.63;118.99
66726;HTU21D;53638;51.062;5.804;2022-10-30T22:35:41;16.65;118.99
66726;HTU21D;53638;51.062;5.804;2022-10-30T22:38:07;16.66;118.99
66726;HTU21D;53638;51.062;5.804;2022-10-30T22:40:33;16.62;118.99
66726;HTU21D;53638;51.062;5.804;2022-10-30T22:42:59;16.55;118.99
66726;HTU21D;53638;51.062;5.804;2022-10-30T22:45:25;16.47;118.99
66726;HTU21D;53638;51.062;5.804;2022-10-30T22:47:51;16.49;118.99
66726;HTU21D;53638;51.062;5.804;2022-10-30T22:50:16;16.52;118.99
66726;HTU21D;53638;51.062;5.804;2022-10-30T22:52:42;16.52;118.99
66726;HTU21D;53638;51.062;5.804;2022-10-30T22:55:08;16.47;118.99
66726;HTU21D;53638;51.062;5.804;2022-10-30T22:57:34;16.44;118.99
66726;HTU21D;53638;51.062;5.804;2022-10-30T23:00:00;16.40;118.99
66726;HTU21D;53638;51.062;5.804;2022-10-30T23:02:26;16.37;118.99
66726;HTU21D;53638;51.062;5.804;2022-10-30T23:04:52;16.35;118.99
66726;HTU21D;53638;51.062;5.804;2022-10-30T23:07:18;16.37;118.99